LELN Airport Information

Runway Information
Runway 05 Length 6890 ft width 148 ft
Elevation 2994 ft Threshold 0 ft Heading 45
Runway 23 Length 6890 ft Width 148 ft
Elevation 3001 ft Threshold 0 ft Heading 225
Runway 06 Length 3609 ft width 328 ft
Elevation 3034 ft Threshold 0 ft Heading 60
Runway 24 Length 3609 ft Width 328 ft
Elevation 3000 ft Threshold 0 ft Heading 240
Airport Frequencies
Type APP Name APP Frequency 122.1 MHZ
Type TWR Name TWR Frequency 122.1 MHZ
Airport Navaids
Type VOR-DME Name Leon Frequency 112000 KHZ
Type NDB Name Leon Frequency 330 KHZ
Airport Weather Information & NOTAM
ADDS - METARS form results

(1335 UTC 23 February 2019)
Data provider http://aviationweather.gov/metar/data/
 
METAR text: LELN 231330Z 14004KT 110V180 CAVOK 14/M01 Q1031
Conditions at: LELN (LEON/VIRGEN CAMI, ES) observed 1330 UTC 23 February 2019
Temperature: 14.0°C (57°F)
Dewpoint: -1.0°C (30°F) [RH = 36%]
Pressure (altimeter): 30.44 inches Hg (1031.0 mb)
Winds: from the SE (140 degrees) at 5 MPH (4 knots; 2.1 m/s)
Visibility: 6 or more miles (10+ km)
Ceiling: ceiling and visibility are OK
Clouds: unknown
Weather: no significant weather observed at this time

METAR text: LELN 231300Z 15004KT 100V240 CAVOK 13/M00 Q1031
Conditions at: LELN (LEON/VIRGEN CAMI, ES) observed 1300 UTC 23 February 2019
Temperature: 13.0°C (55°F)
Dewpoint: 0.0°C (32°F) [RH = 41%]
Pressure (altimeter): 30.44 inches Hg (1031.0 mb)
Winds: from the SSE (150 degrees) at 5 MPH (4 knots; 2.1 m/s)
Visibility: 6 or more miles (10+ km)
Ceiling: ceiling and visibility are OK
Clouds: unknown
Weather: no significant weather observed at this time

Forecast for: LELN (LEON/VIRGEN CAMI, ES)
Text: TAF LELN 231100Z 2312/2321 VRB04KT CAVOK
Forecast period: 1200 to 2100 UTC 23 February 2019
Forecast type: FROM: standard forecast or significant change
Winds: variable direction winds at 5 MPH (4 knots; 2.1 m/s)
Visibility: 6 or more miles 10+ km)
Ceiling: unknown
Clouds: missing
Weather: NSW  (no significant weather)